sensor_id;sensor_type;location;lat;lon;timestamp;pressure;altitude;pressure_sealevel;temperature;humidity
2841;BME280;53423;49.224;12.074;2023-04-08T00:01:51;97811.03;;;8.14;49.81
2841;BME280;53423;49.224;12.074;2023-04-08T00:04:20;97808.84;;;8.10;50.29
2841;BME280;53423;49.224;12.074;2023-04-08T00:06:48;97811.75;;;8.07;49.60
2841;BME280;53423;49.224;12.074;2023-04-08T00:09:16;97819.09;;;7.94;49.97
2841;BME280;53423;49.224;12.074;2023-04-08T00:11:44;97818.41;;;7.92;50.15
2841;BME280;53423;49.224;12.074;2023-04-08T00:14:12;97814.34;;;7.80;51.48
2841;BME280;53423;49.224;12.074;2023-04-08T00:16:40;97813.53;;;7.79;51.30
2841;BME280;53423;49.224;12.074;2023-04-08T00:19:08;97823.44;;;7.76;50.55
2841;BME280;53423;49.224;12.074;2023-04-08T00:21:37;97817.81;;;7.71;51.03
2841;BME280;53423;49.224;12.074;2023-04-08T00:24:06;97813.03;;;7.66;50.97
2841;BME280;53423;49.224;12.074;2023-04-08T00:26:34;97814.81;;;7.66;51.43
2841;BME280;53423;49.224;12.074;2023-04-08T00:29:01;97816.16;;;7.70;51.14
2841;BME280;53423;49.224;12.074;2023-04-08T00:31:29;97819.22;;;7.65;51.26
2841;BME280;53423;49.224;12.074;2023-04-08T00:33:57;97820.72;;;7.68;51.49
2841;BME280;53423;49.224;12.074;2023-04-08T00:36:25;97818.91;;;7.78;51.05
2841;BME280;53423;49.224;12.074;2023-04-08T00:38:55;97830.34;;;7.67;52.31
2841;BME280;53423;49.224;12.074;2023-04-08T00:41:23;97821.13;;;7.73;52.73
2841;BME280;53423;49.224;12.074;2023-04-08T00:43:51;97822.06;;;7.72;53.86
2841;BME280;53423;49.224;12.074;2023-04-08T00:46:20;97821.63;;;7.49;53.73
2841;BME280;53423;49.224;12.074;2023-04-08T00:48:48;97830.66;;;7.45;52.78
2841;BME280;53423;49.224;12.074;2023-04-08T00:51:17;97830.97;;;7.42;53.64
2841;BME280;53423;49.224;12.074;2023-04-08T00:53:45;97823.94;;;7.52;51.93
2841;BME280;53423;49.224;12.074;2023-04-08T00:56:14;97832.03;;;7.49;51.43
2841;BME280;53423;49.224;12.074;2023-04-08T00:58:42;97828.09;;;7.35;55.40
2841;BME280;53423;49.224;12.074;2023-04-08T01:01:17;97837.16;;;7.12;53.27
2841;BME280;53423;49.224;12.074;2023-04-08T01:03:53;97824.59;;;6.98;54.02
2841;BME280;53423;49.224;12.074;2023-04-08T01:06:29;97829.34;;;7.12;54.02
2841;BME280;53423;49.224;12.074;2023-04-08T01:08:59;97832.50;;;7.25;53.06
2841;BME280;53423;49.224;12.074;2023-04-08T01:11:31;97828.38;;;7.23;53.72
2841;BME280;53423;49.224;12.074;2023-04-08T01:14:01;97830.97;;;7.23;52.64
2841;BME280;53423;49.224;12.074;2023-04-08T01:16:32;97826.22;;;7.09;54.25
2841;BME280;53423;49.224;12.074;2023-04-08T01:19:01;97821.81;;;7.19;52.00
2841;BME280;53423;49.224;12.074;2023-04-08T01:21:29;97828.84;;;7.09;53.46
2841;BME280;53423;49.224;12.074;2023-04-08T01:24:00;97828.69;;;6.91;53.37
2841;BME280;53423;49.224;12.074;2023-04-08T01:26:33;97831.03;;;6.94;53.94
2841;BME280;53423;49.224;12.074;2023-04-08T01:29:03;97829.78;;;6.98;54.09
2841;BME280;53423;49.224;12.074;2023-04-08T01:31:32;97827.06;;;6.90;52.62
2841;BME280;53423;49.224;12.074;2023-04-08T01:34:02;97825.28;;;7.00;52.14
2841;BME280;53423;49.224;12.074;2023-04-08T01:36:32;97827.75;;;6.83;53.05
2841;BME280;53423;49.224;12.074;2023-04-08T01:39:04;97822.78;;;6.89;51.85
2841;BME280;53423;49.224;12.074;2023-04-08T01:41:35;97829.91;;;6.87;53.15
2841;BME280;53423;49.224;12.074;2023-04-08T01:44:04;97831.03;;;6.66;53.54
2841;BME280;53423;49.224;12.074;2023-04-08T01:46:32;97827.59;;;6.56;53.57
2841;BME280;53423;49.224;12.074;2023-04-08T01:49:01;97837.31;;;6.44;53.91
2841;BME280;53423;49.224;12.074;2023-04-08T01:51:30;97826.66;;;6.57;53.57
2841;BME280;53423;49.224;12.074;2023-04-08T01:53:58;97827.59;;;6.56;53.21
2841;BME280;53423;49.224;12.074;2023-04-08T01:56:28;97826.56;;;6.18;54.55
2841;BME280;53423;49.224;12.074;2023-04-08T01:58:59;97823.75;;;6.50;53.83
2841;BME280;53423;49.224;12.074;2023-04-08T02:01:29;97825.66;;;6.67;53.07
2841;BME280;53423;49.224;12.074;2023-04-08T02:03:59;97829.53;;;6.73;52.08
2841;BME280;53423;49.224;12.074;2023-04-08T02:06:29;97824.72;;;6.97;50.83
2841;BME280;53423;49.224;12.074;2023-04-08T02:08:58;97832.78;;;7.13;49.72
2841;BME280;53423;49.224;12.074;2023-04-08T02:11:26;97829.50;;;7.20;49.05
2841;BME280;53423;49.224;12.074;2023-04-08T02:13:56;97831.66;;;7.34;48.99
2841;BME280;53423;49.224;12.074;2023-04-08T02:16:30;97827.22;;;7.44;48.83
2841;BME280;53423;49.224;12.074;2023-04-08T02:19:03;97831.78;;;7.42;49.94
2841;BME280;53423;49.224;12.074;2023-04-08T02:21:37;97834.47;;;7.60;48.27
2841;BME280;53423;49.224;12.074;2023-04-08T02:24:12;97829.84;;;7.54;48.85
2841;BME280;53423;49.224;12.074;2023-04-08T02:26:41;97835.63;;;7.38;49.57
2841;BME280;53423;49.224;12.074;2023-04-08T02:29:14;97835.47;;;7.40;51.02
2841;BME280;53423;49.224;12.074;2023-04-08T02:31:43;97833.44;;;7.34;51.30
2841;BME280;53423;49.224;12.074;2023-04-08T02:34:13;97832.34;;;7.36;50.75
2841;BME280;53423;49.224;12.074;2023-04-08T02:36:41;97837.72;;;7.16;51.32
2841;BME280;53423;49.224;12.074;2023-04-08T02:39:11;97839.66;;;7.14;52.34
2841;BME280;53423;49.224;12.074;2023-04-08T02:41:39;97842.66;;;7.09;51.79
2841;BME280;53423;49.224;12.074;2023-04-08T02:44:08;97831.41;;;7.18;52.17
2841;BME280;53423;49.224;12.074;2023-04-08T02:46:37;97834.47;;;6.85;53.09
2841;BME280;53423;49.224;12.074;2023-04-08T02:49:05;97833.91;;;6.82;53.35
2841;BME280;53423;49.224;12.074;2023-04-08T02:51:33;97848.44;;;6.65;52.88
2841;BME280;53423;49.224;12.074;2023-04-08T02:54:01;97846.53;;;6.77;53.73
2841;BME280;53423;49.224;12.074;2023-04-08T02:56:29;97847.47;;;6.76;54.19
2841;BME280;53423;49.224;12.074;2023-04-08T02:58:57;97848.88;;;6.70;54.14
2841;BME280;53423;49.224;12.074;2023-04-08T03:01:25;97845.97;;;6.83;53.13
2841;BME280;53423;49.224;12.074;2023-04-08T03:03:54;97842.94;;;6.87;52.61
2841;BME280;53423;49.224;12.074;2023-04-08T03:06:22;97841.59;;;6.93;51.84
2841;BME280;53423;49.224;12.074;2023-04-08T03:08:50;97842.13;;;7.06;51.60
2841;BME280;53423;49.224;12.074;2023-04-08T03:11:18;97846.66;;;6.94;51.51
2841;BME280;53423;49.224;12.074;2023-04-08T03:13:47;97846.81;;;6.83;52.65
2841;BME280;53423;49.224;12.074;2023-04-08T03:16:14;97843.66;;;6.80;51.71
2841;BME280;53423;49.224;12.074;2023-04-08T03:18:42;97843.75;;;6.69;52.84
2841;BME280;53423;49.224;12.074;2023-04-08T03:21:12;97847.06;;;6.61;52.56
2841;BME280;53423;49.224;12.074;2023-04-08T03:23:40;97845.69;;;6.86;52.26
2841;BME280;53423;49.224;12.074;2023-04-08T03:26:08;97850.66;;;6.89;52.27
2841;BME280;53423;49.224;12.074;2023-04-08T03:28:36;97844.59;;;6.88;53.01
2841;BME280;53423;49.224;12.074;2023-04-08T03:31:04;97849.00;;;7.07;52.26
2841;BME280;53423;49.224;12.074;2023-04-08T03:33:32;97847.75;;;7.01;52.32
2841;BME280;53423;49.224;12.074;2023-04-08T03:36:00;97847.88;;;7.09;52.15
2841;BME280;53423;49.224;12.074;2023-04-08T03:38:29;97856.94;;;7.15;52.59
2841;BME280;53423;49.224;12.074;2023-04-08T03:40:57;97859.13;;;7.10;52.33
2841;BME280;53423;49.224;12.074;2023-04-08T03:43:25;97855.44;;;6.93;53.00
2841;BME280;53423;49.224;12.074;2023-04-08T03:45:54;97856.94;;;6.96;52.97
2841;BME280;53423;49.224;12.074;2023-04-08T03:48:22;97858.97;;;6.92;53.35
2841;BME280;53423;49.224;12.074;2023-04-08T03:50:50;97862.28;;;6.94;52.78
2841;BME280;53423;49.224;12.074;2023-04-08T03:53:18;97859.81;;;7.12;51.98
2841;BME280;53423;49.224;12.074;2023-04-08T03:55:49;97859.22;;;7.27;51.57
2841;BME280;53423;49.224;12.074;2023-04-08T03:58:17;97851.00;;;7.22;52.31
2841;BME280;53423;49.224;12.074;2023-04-08T04:00:45;97861.03;;;7.08;52.14
2841;BME280;53423;49.224;12.074;2023-04-08T04:03:13;97864.59;;;7.26;52.10
2841;BME280;53423;49.224;12.074;2023-04-08T04:05:41;97866.50;;;7.33;51.92
2841;BME280;53423;49.224;12.074;2023-04-08T04:08:08;97869.00;;;7.25;52.96
2841;BME280;53423;49.224;12.074;2023-04-08T04:10:37;97863.09;;;7.42;51.86
2841;BME280;53423;49.224;12.074;2023-04-08T04:13:06;97866.63;;;7.41;51.84
2841;BME280;53423;49.224;12.074;2023-04-08T04:15:37;97867.72;;;7.48;52.00
2841;BME280;53423;49.224;12.074;2023-04-08T04:18:05;97869.94;;;7.43;52.32
2841;BME280;53423;49.224;12.074;2023-04-08T04:20:33;97868.69;;;7.47;51.84
2841;BME280;53423;49.224;12.074;2023-04-08T04:23:01;97871.69;;;7.43;52.33
2841;BME280;53423;49.224;12.074;2023-04-08T04:25:29;97868.97;;;7.35;52.52
2841;BME280;53423;49.224;12.074;2023-04-08T04:27:57;97875.00;;;7.26;53.69
2841;BME280;53423;49.224;12.074;2023-04-08T04:30:27;97875.97;;;7.44;52.98
2841;BME280;53423;49.224;12.074;2023-04-08T04:32:58;97875.44;;;7.40;53.09
2841;BME280;53423;49.224;12.074;2023-04-08T04:35:26;97873.91;;;7.47;53.04
2841;BME280;53423;49.224;12.074;2023-04-08T04:37:54;97870.72;;;7.53;52.93
2841;BME280;53423;49.224;12.074;2023-04-08T04:40:22;97873.38;;;7.44;52.36
2841;BME280;53423;49.224;12.074;2023-04-08T04:42:50;97879.41;;;7.35;53.41
2841;BME280;53423;49.224;12.074;2023-04-08T04:45:18;97880.22;;;7.26;53.67
2841;BME280;53423;49.224;12.074;2023-04-08T04:47:47;97890.09;;;7.22;53.24
2841;BME280;53423;49.224;12.074;2023-04-08T04:50:15;97889.84;;;7.35;52.95
2841;BME280;53423;49.224;12.074;2023-04-08T04:52:43;97890.81;;;7.34;52.77
2841;BME280;53423;49.224;12.074;2023-04-08T04:55:11;97897.81;;;7.33;54.01
2841;BME280;53423;49.224;12.074;2023-04-08T04:57:40;97893.94;;;7.28;54.38
2841;BME280;53423;49.224;12.074;2023-04-08T05:00:09;97899.56;;;7.33;54.74
2841;BME280;53423;49.224;12.074;2023-04-08T05:02:37;97906.28;;;7.45;54.39
2841;BME280;53423;49.224;12.074;2023-04-08T05:05:07;97906.47;;;7.34;54.65
2841;BME280;53423;49.224;12.074;2023-04-08T05:07:35;97914.22;;;6.58;59.85
2841;BME280;53423;49.224;12.074;2023-04-08T05:10:03;97916.69;;;6.69;59.32
2841;BME280;53423;49.224;12.074;2023-04-08T05:12:32;97924.91;;;6.64;60.38
2841;BME280;53423;49.224;12.074;2023-04-08T05:15:00;97927.03;;;6.40;61.60
2841;BME280;53423;49.224;12.074;2023-04-08T05:17:28;97919.53;;;6.47;62.34
2841;BME280;53423;49.224;12.074;2023-04-08T05:19:56;97930.88;;;6.36;63.03
2841;BME280;53423;49.224;12.074;2023-04-08T05:22:26;97927.31;;;6.37;62.68
2841;BME280;53423;49.224;12.074;2023-04-08T05:24:54;97934.69;;;6.32;63.19
2841;BME280;53423;49.224;12.074;2023-04-08T05:27:21;97934.69;;;6.32;63.23
2841;BME280;53423;49.224;12.074;2023-04-08T05:29:49;97934.91;;;6.59;62.29
2841;BME280;53423;49.224;12.074;2023-04-08T05:32:17;97945.94;;;6.02;64.70
2841;BME280;53423;49.224;12.074;2023-04-08T05:34:45;97949.13;;;6.15;64.68
2841;BME280;53423;49.224;12.074;2023-04-08T05:37:13;97950.56;;;6.29;64.33
2841;BME280;53423;49.224;12.074;2023-04-08T05:39:42;97956.97;;;6.25;65.02
2841;BME280;53423;49.224;12.074;2023-04-08T05:42:10;97960.44;;;6.35;65.29
2841;BME280;53423;49.224;12.074;2023-04-08T05:44:39;97967.41;;;6.55;64.93
2841;BME280;53423;49.224;12.074;2023-04-08T05:47:09;97960.53;;;6.54;64.79
2841;BME280;53423;49.224;12.074;2023-04-08T05:49:37;97962.19;;;6.65;64.68
2841;BME280;53423;49.224;12.074;2023-04-08T05:52:05;97959.72;;;6.63;65.06
2841;BME280;53423;49.224;12.074;2023-04-08T05:54:33;97968.41;;;6.73;64.52
2841;BME280;53423;49.224;12.074;2023-04-08T05:57:02;97970.44;;;6.79;64.43
2841;BME280;53423;49.224;12.074;2023-04-08T05:59:31;97972.22;;;6.79;65.26
2841;BME280;53423;49.224;12.074;2023-04-08T06:01:59;97972.00;;;6.91;64.07
2841;BME280;53423;49.224;12.074;2023-04-08T06:04:27;97977.41;;;6.69;66.23
2841;BME280;53423;49.224;12.074;2023-04-08T06:06:55;97970.16;;;6.73;65.87
2841;BME280;53423;49.224;12.074;2023-04-08T06:09:25;97980.63;;;6.92;65.50
2841;BME280;53423;49.224;12.074;2023-04-08T06:11:53;97979.81;;;7.01;65.12
2841;BME280;53423;49.224;12.074;2023-04-08T06:14:23;97986.41;;;7.14;64.71
2841;BME280;53423;49.224;12.074;2023-04-08T06:16:51;97984.78;;;7.13;62.80
2841;BME280;53423;49.224;12.074;2023-04-08T06:19:20;97984.47;;;6.88;64.55
2841;BME280;53423;49.224;12.074;2023-04-08T06:21:48;97993.47;;;6.74;65.01
2841;BME280;53423;49.224;12.074;2023-04-08T06:24:17;97991.19;;;6.41;66.77
2841;BME280;53423;49.224;12.074;2023-04-08T06:26:44;97995.91;;;6.57;66.03
2841;BME280;53423;49.224;12.074;2023-04-08T06:29:13;97992.97;;;6.80;65.55
2841;BME280;53423;49.224;12.074;2023-04-08T06:31:42;97991.72;;;6.84;65.14
2841;BME280;53423;49.224;12.074;2023-04-08T06:34:10;97996.63;;;6.78;65.38
2841;BME280;53423;49.224;12.074;2023-04-08T06:36:38;97997.78;;;6.94;65.40
2841;BME280;53423;49.224;12.074;2023-04-08T06:39:07;98012.34;;;6.97;65.14
2841;BME280;53423;49.224;12.074;2023-04-08T06:41:36;98013.13;;;6.88;64.77
2841;BME280;53423;49.224;12.074;2023-04-08T06:44:04;98010.50;;;6.88;65.35
2841;BME280;53423;49.224;12.074;2023-04-08T06:46:31;98015.16;;;6.84;64.83
2841;BME280;53423;49.224;12.074;2023-04-08T06:49:01;98015.75;;;6.97;64.54
2841;BME280;53423;49.224;12.074;2023-04-08T06:51:30;98012.97;;;6.89;64.77
2841;BME280;53423;49.224;12.074;2023-04-08T06:53:58;98016.41;;;6.90;65.00
2841;BME280;53423;49.224;12.074;2023-04-08T06:56:26;98014.88;;;6.87;65.35
2841;BME280;53423;49.224;12.074;2023-04-08T06:58:54;98022.34;;;7.01;64.60
2841;BME280;53423;49.224;12.074;2023-04-08T07:01:22;98013.44;;;7.04;65.06
2841;BME280;53423;49.224;12.074;2023-04-08T07:03:50;98023.84;;;6.94;65.81
2841;BME280;53423;49.224;12.074;2023-04-08T07:06:20;98014.13;;;7.06;65.23
2841;BME280;53423;49.224;12.074;2023-04-08T07:08:48;98024.53;;;7.06;65.34
2841;BME280;53423;49.224;12.074;2023-04-08T07:11:16;98024.03;;;7.21;65.20
2841;BME280;53423;49.224;12.074;2023-04-08T07:13:44;98026.38;;;7.34;64.10
2841;BME280;53423;49.224;12.074;2023-04-08T07:16:11;98032.13;;;7.09;64.77
2841;BME280;53423;49.224;12.074;2023-04-08T07:18:39;98026.91;;;7.18;64.75
2841;BME280;53423;49.224;12.074;2023-04-08T07:21:08;98030.22;;;7.39;64.01
2841;BME280;53423;49.224;12.074;2023-04-08T07:23:37;98027.19;;;7.15;65.38
2841;BME280;53423;49.224;12.074;2023-04-08T07:26:05;98035.44;;;7.20;64.69
2841;BME280;53423;49.224;12.074;2023-04-08T07:28:33;98035.72;;;7.27;64.72
2841;BME280;53423;49.224;12.074;2023-04-08T07:31:11;98033.78;;;7.29;64.49
2841;BME280;53423;49.224;12.074;2023-04-08T07:33:39;98039.84;;;7.39;64.40
2841;BME280;53423;49.224;12.074;2023-04-08T07:36:07;98022.97;;;7.52;63.88
2841;BME280;53423;49.224;12.074;2023-04-08T07:38:37;98033.50;;;7.51;64.62
2841;BME280;53423;49.224;12.074;2023-04-08T07:41:05;98032.69;;;7.70;63.78
2841;BME280;53423;49.224;12.074;2023-04-08T07:43:33;98027.06;;;7.84;63.95
2841;BME280;53423;49.224;12.074;2023-04-08T07:46:03;98036.13;;;7.99;63.51
2841;BME280;53423;49.224;12.074;2023-04-08T07:48:32;98037.66;;;7.82;64.03
2841;BME280;53423;49.224;12.074;2023-04-08T07:51:02;98037.91;;;7.89;62.98
2841;BME280;53423;49.224;12.074;2023-04-08T07:53:38;98036.28;;;7.69;64.29
2841;BME280;53423;49.224;12.074;2023-04-08T07:56:10;98036.81;;;7.91;63.55
2841;BME280;53423;49.224;12.074;2023-04-08T07:58:38;98042.13;;;8.09;63.52
2841;BME280;53423;49.224;12.074;2023-04-08T08:01:14;98053.31;;;7.73;63.94
2841;BME280;53423;49.224;12.074;2023-04-08T08:03:43;98046.00;;;7.28;65.44
2841;BME280;53423;49.224;12.074;2023-04-08T08:06:13;98050.69;;;7.53;64.56
2841;BME280;53423;49.224;12.074;2023-04-08T08:08:43;98052.19;;;7.56;64.84
2841;BME280;53423;49.224;12.074;2023-04-08T08:11:11;98056.03;;;7.62;64.45
2841;BME280;53423;49.224;12.074;2023-04-08T08:13:39;98064.38;;;7.46;65.20
2841;BME280;53423;49.224;12.074;2023-04-08T08:16:07;98058.66;;;7.42;64.82
2841;BME280;53423;49.224;12.074;2023-04-08T08:18:37;98059.81;;;7.10;65.91
2841;BME280;53423;49.224;12.074;2023-04-08T08:21:06;98064.75;;;7.13;66.39
2841;BME280;53423;49.224;12.074;2023-04-08T08:23:34;98057.69;;;7.43;66.11
2841;BME280;53423;49.224;12.074;2023-04-08T08:26:05;98061.53;;;7.58;64.94
2841;BME280;53423;49.224;12.074;2023-04-08T08:28:35;98068.53;;;7.77;64.26
2841;BME280;53423;49.224;12.074;2023-04-08T08:31:04;98067.44;;;7.89;64.53
2841;BME280;53423;49.224;12.074;2023-04-08T08:33:32;98063.44;;;7.95;63.96
2841;BME280;53423;49.224;12.074;2023-04-08T08:36:08;98066.75;;;7.87;64.90
2841;BME280;53423;49.224;12.074;2023-04-08T08:38:36;98074.31;;;7.90;64.00
2841;BME280;53423;49.224;12.074;2023-04-08T08:41:05;98074.75;;;7.76;64.51
2841;BME280;53423;49.224;12.074;2023-04-08T08:43:33;98075.41;;;7.78;64.39
2841;BME280;53423;49.224;12.074;2023-04-08T08:46:01;98076.66;;;7.84;64.89
2841;BME280;53423;49.224;12.074;2023-04-08T08:48:30;98080.34;;;7.72;65.83
2841;BME280;53423;49.224;12.074;2023-04-08T08:50:58;98088.72;;;7.66;65.54
2841;BME280;53423;49.224;12.074;2023-04-08T08:53:28;98085.31;;;7.84;64.26
2841;BME280;53423;49.224;12.074;2023-04-08T08:56:01;98085.59;;;7.81;65.36
2841;BME280;53423;49.224;12.074;2023-04-08T08:58:33;98082.56;;;7.86;64.69
2841;BME280;53423;49.224;12.074;2023-04-08T09:01:01;98088.28;;;7.51;65.97
2841;BME280;53423;49.224;12.074;2023-04-08T09:03:29;98084.47;;;7.74;65.14
2841;BME280;53423;49.224;12.074;2023-04-08T09:05:59;98090.38;;;7.95;64.97
2841;BME280;53423;49.224;12.074;2023-04-08T09:08:29;98091.22;;;7.96;65.36
2841;BME280;53423;49.224;12.074;2023-04-08T09:11:10;98095.16;;;8.00;65.31
2841;BME280;53423;49.224;12.074;2023-04-08T09:13:41;98095.47;;;8.06;64.97
2841;BME280;53423;49.224;12.074;2023-04-08T09:16:10;98096.41;;;7.77;65.57
2841;BME280;53423;49.224;12.074;2023-04-08T09:18:39;98100.56;;;7.79;66.39
2841;BME280;53423;49.224;12.074;2023-04-08T09:21:11;98101.91;;;8.12;65.22
2841;BME280;53423;49.224;12.074;2023-04-08T09:23:41;98105.09;;;7.96;65.64
2841;BME280;53423;49.224;12.074;2023-04-08T09:26:10;98104.38;;;8.04;65.63
2841;BME280;53423;49.224;12.074;2023-04-08T09:28:41;98104.94;;;7.98;65.99
2841;BME280;53423;49.224;12.074;2023-04-08T09:31:20;98107.41;;;7.90;66.88
2841;BME280;53423;49.224;12.074;2023-04-08T09:33:48;98113.72;;;8.16;65.54
2841;BME280;53423;49.224;12.074;2023-04-08T09:36:17;98117.00;;;8.08;65.30
2841;BME280;53423;49.224;12.074;2023-04-08T09:38:46;98112.09;;;8.24;64.64
2841;BME280;53423;49.224;12.074;2023-04-08T09:41:15;98100.94;;;8.32;64.53
2841;BME280;53423;49.224;12.074;2023-04-08T09:43:47;98109.00;;;8.57;64.13
2841;BME280;53423;49.224;12.074;2023-04-08T09:46:17;98110.47;;;8.79;62.94
2841;BME280;53423;49.224;12.074;2023-04-08T09:48:49;98102.47;;;8.90;62.33
2841;BME280;53423;49.224;12.074;2023-04-08T09:51:21;98106.00;;;8.99;62.73
2841;BME280;53423;49.224;12.074;2023-04-08T09:53:55;98105.72;;;8.92;63.39
2841;BME280;53423;49.224;12.074;2023-04-08T09:56:30;98111.47;;;8.68;62.73
2841;BME280;53423;49.224;12.074;2023-04-08T09:59:08;98112.00;;;8.72;62.66
2841;BME280;53423;49.224;12.074;2023-04-08T10:01:43;98105.50;;;9.13;61.38
2841;BME280;53423;49.224;12.074;2023-04-08T10:04:14;98106.84;;;8.90;61.98
2841;BME280;53423;49.224;12.074;2023-04-08T10:06:44;98105.91;;;9.18;61.11
2841;BME280;53423;49.224;12.074;2023-04-08T10:09:17;98105.22;;;9.16;61.69
2841;BME280;53423;49.224;12.074;2023-04-08T10:11:46;98107.41;;;9.20;60.85
2841;BME280;53423;49.224;12.074;2023-04-08T10:14:15;98109.94;;;9.12;61.16
2841;BME280;53423;49.224;12.074;2023-04-08T10:16:43;98109.53;;;9.07;61.88
2841;BME280;53423;49.224;12.074;2023-04-08T10:19:36;98112.09;;;9.17;60.81
2841;BME280;53423;49.224;12.074;2023-04-08T10:25:28;98116.16;;;9.02;61.14
2841;BME280;53423;49.224;12.074;2023-04-08T10:27:57;98111.19;;;8.71;62.21
2841;BME280;53423;49.224;12.074;2023-04-08T10:30:39;98116.09;;;8.84;61.00
2841;BME280;53423;49.224;12.074;2023-04-08T10:33:12;98113.91;;;8.79;61.82
2841;BME280;53423;49.224;12.074;2023-04-08T10:35:42;98109.22;;;8.83;61.82
2841;BME280;53423;49.224;12.074;2023-04-08T10:38:12;98116.78;;;8.86;61.72
2841;BME280;53423;49.224;12.074;2023-04-08T10:40:40;98111.84;;;8.83;62.08
2841;BME280;53423;49.224;12.074;2023-04-08T10:43:10;98108.94;;;8.86;62.20
2841;BME280;53423;49.224;12.074;2023-04-08T10:45:40;98117.59;;;8.87;62.58
2841;BME280;53423;49.224;12.074;2023-04-08T10:48:16;98113.00;;;8.98;62.20
2841;BME280;53423;49.224;12.074;2023-04-08T10:50:51;98115.28;;;9.11;61.54
2841;BME280;53423;49.224;12.074;2023-04-08T10:53:24;98115.63;;;8.98;62.29
2841;BME280;53423;49.224;12.074;2023-04-08T10:55:52;98117.06;;;8.83;62.92
2841;BME280;53423;49.224;12.074;2023-04-08T10:58:20;98117.09;;;9.10;62.21
2841;BME280;53423;49.224;12.074;2023-04-08T11:00:50;98118.09;;;9.00;61.58
2841;BME280;53423;49.224;12.074;2023-04-08T11:03:18;98118.66;;;9.30;60.78
2841;BME280;53423;49.224;12.074;2023-04-08T11:05:48;98115.69;;;9.43;60.02
2841;BME280;53423;49.224;12.074;2023-04-08T11:08:16;98118.03;;;9.46;60.25
2841;BME280;53423;49.224;12.074;2023-04-08T11:10:47;98117.59;;;9.41;60.99
2841;BME280;53423;49.224;12.074;2023-04-08T11:13:15;98118.97;;;9.45;60.63
2841;BME280;53423;49.224;12.074;2023-04-08T11:15:43;98109.97;;;9.57;60.26
2841;BME280;53423;49.224;12.074;2023-04-08T11:18:12;98115.34;;;9.55;59.98
2841;BME280;53423;49.224;12.074;2023-04-08T11:20:42;98119.97;;;9.44;61.14
2841;BME280;53423;49.224;12.074;2023-04-08T11:23:11;98117.06;;;9.64;60.46
2841;BME280;53423;49.224;12.074;2023-04-08T11:25:41;98124.09;;;9.64;60.58
2841;BME280;53423;49.224;12.074;2023-04-08T11:28:10;98115.53;;;9.44;61.30
2841;BME280;53423;49.224;12.074;2023-04-08T11:30:39;98124.69;;;9.31;62.24
2841;BME280;53423;49.224;12.074;2023-04-08T11:33:07;98115.44;;;9.09;62.97
2841;BME280;53423;49.224;12.074;2023-04-08T11:35:40;98120.66;;;9.09;62.60
2841;BME280;53423;49.224;12.074;2023-04-08T11:38:08;98122.75;;;9.33;61.96
2841;BME280;53423;49.224;12.074;2023-04-08T11:40:37;98117.22;;;9.36;61.36
2841;BME280;53423;49.224;12.074;2023-04-08T11:43:08;98119.66;;;9.20;61.29
2841;BME280;53423;49.224;12.074;2023-04-08T11:45:37;98122.88;;;9.14;62.07
2841;BME280;53423;49.224;12.074;2023-04-08T11:48:09;98108.91;;;9.23;62.30
2841;BME280;53423;49.224;12.074;2023-04-08T11:50:38;98119.50;;;9.21;62.50
2841;BME280;53423;49.224;12.074;2023-04-08T11:53:16;98114.13;;;8.96;62.68
2841;BME280;53423;49.224;12.074;2023-04-08T11:55:46;98117.25;;;9.09;62.63
2841;BME280;53423;49.224;12.074;2023-04-08T11:58:14;98118.59;;;9.13;62.10
2841;BME280;53423;49.224;12.074;2023-04-08T12:00:42;98116.81;;;9.13;63.11
2841;BME280;53423;49.224;12.074;2023-04-08T12:03:11;98119.72;;;9.10;63.32
2841;BME280;53423;49.224;12.074;2023-04-08T12:05:39;98124.88;;;9.20;63.84
2841;BME280;53423;49.224;12.074;2023-04-08T12:08:08;98129.63;;;9.07;64.16
2841;BME280;53423;49.224;12.074;2023-04-08T12:10:37;98128.09;;;9.14;63.89
2841;BME280;53423;49.224;12.074;2023-04-08T12:13:05;98130.91;;;8.93;64.36
2841;BME280;53423;49.224;12.074;2023-04-08T12:15:34;98131.84;;;9.02;64.62
2841;BME280;53423;49.224;12.074;2023-04-08T12:18:01;98140.19;;;9.15;63.50
2841;BME280;53423;49.224;12.074;2023-04-08T12:20:29;98133.78;;;9.00;64.03
2841;BME280;53423;49.224;12.074;2023-04-08T12:22:57;98150.72;;;8.40;66.00
2841;BME280;53423;49.224;12.074;2023-04-08T12:25:25;98151.53;;;8.50;66.39
2841;BME280;53423;49.224;12.074;2023-04-08T12:27:56;98154.94;;;8.50;66.63
2841;BME280;53423;49.224;12.074;2023-04-08T12:30:23;98148.06;;;8.59;66.87
2841;BME280;53423;49.224;12.074;2023-04-08T12:32:52;98156.84;;;8.67;66.12
2841;BME280;53423;49.224;12.074;2023-04-08T12:35:20;98150.63;;;8.78;66.29
2841;BME280;53423;49.224;12.074;2023-04-08T12:37:48;98156.53;;;8.90;66.26
2841;BME280;53423;49.224;12.074;2023-04-08T12:40:16;98153.06;;;8.89;66.09
2841;BME280;53423;49.224;12.074;2023-04-08T12:42:44;98157.25;;;9.19;64.91
2841;BME280;53423;49.224;12.074;2023-04-08T12:45:15;98156.66;;;8.88;64.95
2841;BME280;53423;49.224;12.074;2023-04-08T12:47:43;98159.78;;;9.01;65.23
2841;BME280;53423;49.224;12.074;2023-04-08T12:50:11;98161.13;;;9.15;65.19
2841;BME280;53423;49.224;12.074;2023-04-08T12:52:39;98150.44;;;9.35;64.26
2841;BME280;53423;49.224;12.074;2023-04-08T12:55:07;98150.81;;;9.67;63.17
2841;BME280;53423;49.224;12.074;2023-04-08T12:57:35;98143.50;;;9.88;62.41
2841;BME280;53423;49.224;12.074;2023-04-08T13:00:07;98141.94;;;10.31;60.91
2841;BME280;53423;49.224;12.074;2023-04-08T13:02:38;98148.34;;;10.28;61.17
2841;BME280;53423;49.224;12.074;2023-04-08T13:05:08;98140.38;;;10.02;60.94
2841;BME280;53423;49.224;12.074;2023-04-08T13:07:36;98146.28;;;10.04;59.97
2841;BME280;53423;49.224;12.074;2023-04-08T13:10:05;98146.88;;;10.34;59.69
2841;BME280;53423;49.224;12.074;2023-04-08T13:12:33;98147.66;;;10.69;59.47
2841;BME280;53423;49.224;12.074;2023-04-08T13:15:01;98139.50;;;11.06;56.97
2841;BME280;53423;49.224;12.074;2023-04-08T13:17:29;98140.19;;;10.82;57.58
2841;BME280;53423;49.224;12.074;2023-04-08T13:19:58;98143.19;;;9.91;60.04
2841;BME280;53423;49.224;12.074;2023-04-08T13:22:26;98129.59;;;10.41;59.95
2841;BME280;53423;49.224;12.074;2023-04-08T13:24:54;98134.34;;;10.88;58.36